sensor_id;sensor_type;location;lat;lon;timestamp;pressure;altitude;pressure_sealevel;temperature;humidity
60611;BME280;46439;51.164;13.572;2023-04-01T00:01:11;98260.31;;;10.29;81.94
60611;BME280;46439;51.164;13.572;2023-04-01T00:03:45;98262.31;;;10.27;81.95
60611;BME280;46439;51.164;13.572;2023-04-01T00:06:16;98261.07;;;10.26;81.99
60611;BME280;46439;51.164;13.572;2023-04-01T00:08:45;98257.14;;;10.25;81.89
60611;BME280;46439;51.164;13.572;2023-04-01T00:11:14;98257.36;;;10.24;82.03
60611;BME280;46439;51.164;13.572;2023-04-01T00:13:43;98254.48;;;10.24;82.10
60611;BME280;46439;51.164;13.572;2023-04-01T00:16:11;98252.36;;;10.25;82.00
60611;BME280;46439;51.164;13.572;2023-04-01T00:18:40;98254.17;;;10.24;82.02
60611;BME280;46439;51.164;13.572;2023-04-01T00:21:09;98255.13;;;10.22;82.05
60611;BME280;46439;51.164;13.572;2023-04-01T00:23:37;98250.69;;;10.22;82.20
60611;BME280;46439;51.164;13.572;2023-04-01T00:26:06;98251.73;;;10.20;82.22
60611;BME280;46439;51.164;13.572;2023-04-01T00:28:35;98251.92;;;10.18;82.39
60611;BME280;46439;51.164;13.572;2023-04-01T00:31:07;98253.41;;;10.16;82.37
60611;BME280;46439;51.164;13.572;2023-04-01T00:33:36;98254.66;;;10.16;82.32
60611;BME280;46439;51.164;13.572;2023-04-01T00:36:10;98251.97;;;10.16;82.40
60611;BME280;46439;51.164;13.572;2023-04-01T00:38:39;98256.41;;;10.17;82.37
60611;BME280;46439;51.164;13.572;2023-04-01T00:41:09;98255.83;;;10.16;82.65
60611;BME280;46439;51.164;13.572;2023-04-01T00:43:42;98252.85;;;10.15;82.56
60611;BME280;46439;51.164;13.572;2023-04-01T00:46:11;98251.90;;;10.14;82.68
60611;BME280;46439;51.164;13.572;2023-04-01T00:48:44;98249.73;;;10.16;82.78
60611;BME280;46439;51.164;13.572;2023-04-01T00:51:16;98251.46;;;10.17;82.76
60611;BME280;46439;51.164;13.572;2023-04-01T00:53:47;98250.50;;;10.19;82.85
60611;BME280;46439;51.164;13.572;2023-04-01T00:56:18;98253.97;;;10.22;82.78
60611;BME280;46439;51.164;13.572;2023-04-01T00:58:51;98251.14;;;10.23;83.00
60611;BME280;46439;51.164;13.572;2023-04-01T01:01:23;98250.05;;;10.24;83.00
60611;BME280;46439;51.164;13.572;2023-04-01T01:03:53;98251.61;;;10.27;83.12
60611;BME280;46439;51.164;13.572;2023-04-01T01:06:35;98247.38;;;10.30;83.24
60611;BME280;46439;51.164;13.572;2023-04-01T01:09:23;98251.19;;;10.32;83.10
60611;BME280;46439;51.164;13.572;2023-04-01T01:11:58;98252.57;;;10.35;83.42
60611;BME280;46439;51.164;13.572;2023-04-01T01:14:39;98250.21;;;10.35;83.41
60611;BME280;46439;51.164;13.572;2023-04-01T01:17:15;98253.00;;;10.33;83.26
60611;BME280;46439;51.164;13.572;2023-04-01T01:20:04;98256.41;;;10.32;83.36
60611;BME280;46439;51.164;13.572;2023-04-01T01:23:04;98255.95;;;10.32;83.22
60611;BME280;46439;51.164;13.572;2023-04-01T01:25:43;98259.77;;;10.30;83.26
60611;BME280;46439;51.164;13.572;2023-04-01T01:28:28;98256.09;;;10.28;83.22
60611;BME280;46439;51.164;13.572;2023-04-01T01:31:03;98252.18;;;10.28;83.34
60611;BME280;46439;51.164;13.572;2023-04-01T01:33:46;98250.83;;;10.29;83.44
60611;BME280;46439;51.164;13.572;2023-04-01T01:36:20;98253.67;;;10.30;83.50
60611;BME280;46439;51.164;13.572;2023-04-01T01:38:49;98250.55;;;10.29;83.45
60611;BME280;46439;51.164;13.572;2023-04-01T01:41:19;98249.23;;;10.30;83.53
60611;BME280;46439;51.164;13.572;2023-04-01T01:43:52;98249.55;;;10.30;83.35
60611;BME280;46439;51.164;13.572;2023-04-01T01:46:24;98248.31;;;10.30;83.45
60611;BME280;46439;51.164;13.572;2023-04-01T01:48:54;98248.52;;;10.29;83.61
60611;BME280;46439;51.164;13.572;2023-04-01T01:51:24;98250.17;;;10.29;83.57
60611;BME280;46439;51.164;13.572;2023-04-01T01:53:53;98246.15;;;10.30;83.58
60611;BME280;46439;51.164;13.572;2023-04-01T01:56:23;98249.23;;;10.28;83.43
60611;BME280;46439;51.164;13.572;2023-04-01T01:58:58;98250.80;;;10.30;83.68
60611;BME280;46439;51.164;13.572;2023-04-01T02:01:31;98252.28;;;10.31;83.82
60611;BME280;46439;51.164;13.572;2023-04-01T02:04:01;98253.34;;;10.32;83.82
60611;BME280;46439;51.164;13.572;2023-04-01T02:06:32;98250.88;;;10.34;83.64
60611;BME280;46439;51.164;13.572;2023-04-01T02:09:04;98253.39;;;10.37;84.02
60611;BME280;46439;51.164;13.572;2023-04-01T02:11:38;98253.20;;;10.38;84.09
60611;BME280;46439;51.164;13.572;2023-04-01T02:14:11;98251.40;;;10.37;83.97
60611;BME280;46439;51.164;13.572;2023-04-01T02:16:45;98250.29;;;10.36;83.82
60611;BME280;46439;51.164;13.572;2023-04-01T02:19:18;98253.12;;;10.35;83.81
60611;BME280;46439;51.164;13.572;2023-04-01T02:21:53;98255.43;;;10.35;83.90
60611;BME280;46439;51.164;13.572;2023-04-01T02:24:25;98255.56;;;10.34;83.76
60611;BME280;46439;51.164;13.572;2023-04-01T02:26:54;98257.52;;;10.35;83.88
60611;BME280;46439;51.164;13.572;2023-04-01T02:29:25;98255.73;;;10.33;83.97
60611;BME280;46439;51.164;13.572;2023-04-01T02:31:55;98254.44;;;10.31;83.84
60611;BME280;46439;51.164;13.572;2023-04-01T02:34:24;98255.66;;;10.31;83.78
60611;BME280;46439;51.164;13.572;2023-04-01T02:36:54;98253.95;;;10.31;83.93
60611;BME280;46439;51.164;13.572;2023-04-01T02:39:24;98257.32;;;10.30;83.96
60611;BME280;46439;51.164;13.572;2023-04-01T02:41:54;98262.43;;;10.30;83.70
60611;BME280;46439;51.164;13.572;2023-04-01T02:44:23;98264.45;;;10.30;83.96
60611;BME280;46439;51.164;13.572;2023-04-01T02:46:51;98266.29;;;10.31;84.07
60611;BME280;46439;51.164;13.572;2023-04-01T02:49:21;98268.16;;;10.32;84.19
60611;BME280;46439;51.164;13.572;2023-04-01T02:51:49;98268.73;;;10.32;84.07
60611;BME280;46439;51.164;13.572;2023-04-01T02:54:18;98272.92;;;10.30;84.24
60611;BME280;46439;51.164;13.572;2023-04-01T02:56:46;98274.98;;;10.29;84.16
60611;BME280;46439;51.164;13.572;2023-04-01T02:59:14;98275.82;;;10.30;84.14
60611;BME280;46439;51.164;13.572;2023-04-01T03:01:43;98276.60;;;10.29;84.10
60611;BME280;46439;51.164;13.572;2023-04-01T03:04:12;98278.36;;;10.28;84.28
60611;BME280;46439;51.164;13.572;2023-04-01T03:06:40;98278.98;;;10.28;84.06
60611;BME280;46439;51.164;13.572;2023-04-01T03:09:08;98280.05;;;10.29;83.99
60611;BME280;46439;51.164;13.572;2023-04-01T03:11:37;98281.59;;;10.29;84.13
60611;BME280;46439;51.164;13.572;2023-04-01T03:14:06;98284.31;;;10.31;84.37
60611;BME280;46439;51.164;13.572;2023-04-01T03:16:35;98284.45;;;10.30;84.28
60611;BME280;46439;51.164;13.572;2023-04-01T03:19:03;98283.80;;;10.29;84.29
60611;BME280;46439;51.164;13.572;2023-04-01T03:21:32;98283.97;;;10.28;83.97
60611;BME280;46439;51.164;13.572;2023-04-01T03:24:00;98284.18;;;10.26;84.02
60611;BME280;46439;51.164;13.572;2023-04-01T03:26:29;98287.67;;;10.25;84.24
60611;BME280;46439;51.164;13.572;2023-04-01T03:28:57;98283.73;;;10.24;84.17
60611;BME280;46439;51.164;13.572;2023-04-01T03:31:26;98289.45;;;10.21;84.13
60611;BME280;46439;51.164;13.572;2023-04-01T03:33:54;98290.04;;;10.19;84.20
60611;BME280;46439;51.164;13.572;2023-04-01T03:36:23;98288.80;;;10.18;84.03
60611;BME280;46439;51.164;13.572;2023-04-01T03:38:51;98291.87;;;10.18;84.35
60611;BME280;46439;51.164;13.572;2023-04-01T03:41:20;98289.80;;;10.17;84.29
60611;BME280;46439;51.164;13.572;2023-04-01T03:43:48;98293.70;;;10.17;84.49
60611;BME280;46439;51.164;13.572;2023-04-01T03:46:19;98291.78;;;10.18;84.22
60611;BME280;46439;51.164;13.572;2023-04-01T03:48:48;98294.27;;;10.18;84.40
60611;BME280;46439;51.164;13.572;2023-04-01T03:51:17;98290.52;;;10.17;84.30
60611;BME280;46439;51.164;13.572;2023-04-01T03:53:45;98292.65;;;10.18;84.42
60611;BME280;46439;51.164;13.572;2023-04-01T03:56:14;98294.80;;;10.20;84.42
60611;BME280;46439;51.164;13.572;2023-04-01T03:58:42;98297.20;;;10.22;84.46
60611;BME280;46439;51.164;13.572;2023-04-01T04:01:19;98298.08;;;10.26;84.75
60611;BME280;46439;51.164;13.572;2023-04-01T04:03:49;98302.36;;;10.26;84.50
60611;BME280;46439;51.164;13.572;2023-04-01T04:06:19;98304.63;;;10.26;84.58
60611;BME280;46439;51.164;13.572;2023-04-01T04:08:47;98300.15;;;10.27;84.69
60611;BME280;46439;51.164;13.572;2023-04-01T04:11:16;98301.69;;;10.27;84.67
60611;BME280;46439;51.164;13.572;2023-04-01T04:13:45;98306.36;;;10.28;84.81
60611;BME280;46439;51.164;13.572;2023-04-01T04:16:16;98304.60;;;10.31;84.74
60611;BME280;46439;51.164;13.572;2023-04-01T04:18:45;98306.82;;;10.34;84.68
60611;BME280;46439;51.164;13.572;2023-04-01T04:21:14;98310.94;;;10.37;84.95
60611;BME280;46439;51.164;13.572;2023-04-01T04:23:43;98311.88;;;10.41;85.14
60611;BME280;46439;51.164;13.572;2023-04-01T04:26:14;98315.59;;;10.42;85.11
60611;BME280;46439;51.164;13.572;2023-04-01T04:28:43;98315.71;;;10.44;85.00
60611;BME280;46439;51.164;13.572;2023-04-01T04:31:11;98315.41;;;10.45;85.23
60611;BME280;46439;51.164;13.572;2023-04-01T04:33:40;98318.91;;;10.44;85.05
60611;BME280;46439;51.164;13.572;2023-04-01T04:36:09;98319.54;;;10.42;84.86
60611;BME280;46439;51.164;13.572;2023-04-01T04:38:38;98326.65;;;10.39;84.84
60611;BME280;46439;51.164;13.572;2023-04-01T04:41:11;98322.14;;;10.38;84.63
60611;BME280;46439;51.164;13.572;2023-04-01T04:43:41;98326.85;;;10.35;84.56
60611;BME280;46439;51.164;13.572;2023-04-01T04:46:10;98329.89;;;10.33;84.66
60611;BME280;46439;51.164;13.572;2023-04-01T04:48:39;98331.02;;;10.32;84.52
60611;BME280;46439;51.164;13.572;2023-04-01T04:51:07;98333.92;;;10.33;84.66
60611;BME280;46439;51.164;13.572;2023-04-01T04:53:36;98334.48;;;10.35;84.63
60611;BME280;46439;51.164;13.572;2023-04-01T04:56:04;98337.45;;;10.34;84.72
60611;BME280;46439;51.164;13.572;2023-04-01T04:58:33;98338.75;;;10.37;84.80
60611;BME280;46439;51.164;13.572;2023-04-01T05:01:07;98339.91;;;10.35;84.78
60611;BME280;46439;51.164;13.572;2023-04-01T05:03:35;98339.91;;;10.35;84.68
60611;BME280;46439;51.164;13.572;2023-04-01T05:06:05;98342.14;;;10.37;84.92
60611;BME280;46439;51.164;13.572;2023-04-01T05:08:34;98345.70;;;10.39;85.10
60611;BME280;46439;51.164;13.572;2023-04-01T05:11:06;98346.31;;;10.41;85.00
60611;BME280;46439;51.164;13.572;2023-04-01T05:13:34;98347.64;;;10.42;84.87
60611;BME280;46439;51.164;13.572;2023-04-01T05:16:07;98351.91;;;10.43;84.89
60611;BME280;46439;51.164;13.572;2023-04-01T05:18:35;98353.73;;;10.42;84.82
60611;BME280;46439;51.164;13.572;2023-04-01T05:21:04;98361.48;;;10.42;84.72
60611;BME280;46439;51.164;13.572;2023-04-01T05:23:34;98362.09;;;10.42;84.83
60611;BME280;46439;51.164;13.572;2023-04-01T05:26:06;98367.42;;;10.38;84.67
60611;BME280;46439;51.164;13.572;2023-04-01T05:28:35;98359.87;;;10.37;84.60
60611;BME280;46439;51.164;13.572;2023-04-01T05:31:05;98364.30;;;10.40;84.70
60611;BME280;46439;51.164;13.572;2023-04-01T05:33:34;98360.86;;;10.39;84.90
60611;BME280;46439;51.164;13.572;2023-04-01T05:36:09;98362.88;;;10.38;84.80
60611;BME280;46439;51.164;13.572;2023-04-01T05:38:39;98366.68;;;10.37;84.77
60611;BME280;46439;51.164;13.572;2023-04-01T05:41:08;98364.27;;;10.36;84.68
60611;BME280;46439;51.164;13.572;2023-04-01T05:43:39;98365.98;;;10.36;84.94
60611;BME280;46439;51.164;13.572;2023-04-01T05:46:08;98367.76;;;10.37;84.74
60611;BME280;46439;51.164;13.572;2023-04-01T05:48:36;98366.86;;;10.38;84.85
60611;BME280;46439;51.164;13.572;2023-04-01T05:51:05;98369.18;;;10.41;84.79
60611;BME280;46439;51.164;13.572;2023-04-01T05:53:34;98370.30;;;10.42;84.98
60611;BME280;46439;51.164;13.572;2023-04-01T05:56:05;98369.71;;;10.42;84.92
60611;BME280;46439;51.164;13.572;2023-04-01T05:58:34;98370.12;;;10.45;84.97
60611;BME280;46439;51.164;13.572;2023-04-01T06:01:04;98370.44;;;10.48;85.06
60611;BME280;46439;51.164;13.572;2023-04-01T06:03:33;98373.48;;;10.50;85.06
60611;BME280;46439;51.164;13.572;2023-04-01T06:06:02;98375.80;;;10.54;85.01
60611;BME280;46439;51.164;13.572;2023-04-01T06:08:32;98376.92;;;10.59;85.31
60611;BME280;46439;51.164;13.572;2023-04-01T06:11:07;98375.58;;;10.61;85.27
60611;BME280;46439;51.164;13.572;2023-04-01T06:13:55;98375.91;;;10.61;85.22
60611;BME280;46439;51.164;13.572;2023-04-01T06:16:36;98383.25;;;10.63;85.37
60611;BME280;46439;51.164;13.572;2023-04-01T06:19:17;98383.36;;;10.64;85.24
60611;BME280;46439;51.164;13.572;2023-04-01T06:22:22;98385.52;;;10.71;85.33
60611;BME280;46439;51.164;13.572;2023-04-01T06:31:05;98392.55;;;10.87;85.44
60611;BME280;46439;51.164;13.572;2023-04-01T06:33:48;98394.00;;;10.92;85.48
60611;BME280;46439;51.164;13.572;2023-04-01T06:36:39;98393.42;;;10.96;85.67
60611;BME280;46439;51.164;13.572;2023-04-01T06:39:36;98389.79;;;10.95;85.62
60611;BME280;46439;51.164;13.572;2023-04-01T06:45:23;98390.52;;;11.00;85.58
60611;BME280;46439;51.164;13.572;2023-04-01T06:48:09;98391.95;;;11.05;85.56
60611;BME280;46439;51.164;13.572;2023-04-01T06:50:44;98398.39;;;11.09;85.70
60611;BME280;46439;51.164;13.572;2023-04-01T06:53:21;98398.14;;;11.10;85.65
60611;BME280;46439;51.164;13.572;2023-04-01T06:55:53;98401.28;;;11.11;85.63
60611;BME280;46439;51.164;13.572;2023-04-01T06:58:25;98397.89;;;11.15;85.50
60611;BME280;46439;51.164;13.572;2023-04-01T07:00:56;98393.82;;;11.20;85.62
60611;BME280;46439;51.164;13.572;2023-04-01T07:03:32;98396.92;;;11.24;85.61
60611;BME280;46439;51.164;13.572;2023-04-01T07:06:04;98396.05;;;11.25;85.76
60611;BME280;46439;51.164;13.572;2023-04-01T07:08:36;98397.30;;;11.25;85.44
60611;BME280;46439;51.164;13.572;2023-04-01T07:11:10;98399.26;;;11.26;85.41
60611;BME280;46439;51.164;13.572;2023-04-01T07:13:44;98399.00;;;11.30;85.62
60611;BME280;46439;51.164;13.572;2023-04-01T07:16:18;98400.50;;;11.36;85.61
60611;BME280;46439;51.164;13.572;2023-04-01T07:18:52;98404.30;;;11.37;85.72
60611;BME280;46439;51.164;13.572;2023-04-01T07:21:26;98408.05;;;11.38;85.54
60611;BME280;46439;51.164;13.572;2023-04-01T07:23:59;98410.23;;;11.38;85.53
60611;BME280;46439;51.164;13.572;2023-04-01T07:26:30;98410.41;;;11.38;85.46
60611;BME280;46439;51.164;13.572;2023-04-01T07:28:59;98413.58;;;11.41;85.50
60611;BME280;46439;51.164;13.572;2023-04-01T07:31:41;98415.25;;;11.45;85.35
60611;BME280;46439;51.164;13.572;2023-04-01T07:34:19;98419.61;;;11.44;85.34
60611;BME280;46439;51.164;13.572;2023-04-01T07:36:56;98417.98;;;11.46;85.18
60611;BME280;46439;51.164;13.572;2023-04-01T07:39:36;98420.58;;;11.48;85.35
60611;BME280;46439;51.164;13.572;2023-04-01T07:42:14;98425.67;;;11.50;85.38
60611;BME280;46439;51.164;13.572;2023-04-01T07:44:51;98430.21;;;11.53;85.33
60611;BME280;46439;51.164;13.572;2023-04-01T07:47:36;98431.73;;;11.57;85.31
60611;BME280;46439;51.164;13.572;2023-04-01T07:50:17;98431.31;;;11.61;85.46
60611;BME280;46439;51.164;13.572;2023-04-01T07:52:52;98432.20;;;11.63;85.34
60611;BME280;46439;51.164;13.572;2023-04-01T07:55:26;98433.88;;;11.67;85.21
60611;BME280;46439;51.164;13.572;2023-04-01T07:58:02;98435.34;;;11.69;85.34
60611;BME280;46439;51.164;13.572;2023-04-01T08:00:42;98434.63;;;11.71;85.22
60611;BME280;46439;51.164;13.572;2023-04-01T08:03:27;98440.04;;;11.74;85.19
60611;BME280;46439;51.164;13.572;2023-04-01T08:06:03;98439.86;;;11.80;85.29
60611;BME280;46439;51.164;13.572;2023-04-01T08:08:43;98444.95;;;11.86;85.26
60611;BME280;46439;51.164;13.572;2023-04-01T08:11:25;98445.80;;;11.95;85.42
60611;BME280;46439;51.164;13.572;2023-04-01T08:14:04;98448.92;;;12.02;85.28
60611;BME280;46439;51.164;13.572;2023-04-01T08:16:44;98452.29;;;12.06;85.45
60611;BME280;46439;51.164;13.572;2023-04-01T08:19:26;98455.52;;;12.09;85.30
60611;BME280;46439;51.164;13.572;2023-04-01T08:22:01;98457.54;;;12.14;85.29
60611;BME280;46439;51.164;13.572;2023-04-01T08:24:37;98456.05;;;12.17;85.28
60611;BME280;46439;51.164;13.572;2023-04-01T08:27:15;98456.50;;;12.17;85.16
60611;BME280;46439;51.164;13.572;2023-04-01T08:29:50;98462.80;;;12.18;85.10
60611;BME280;46439;51.164;13.572;2023-04-01T08:32:25;98459.66;;;12.20;85.00
60611;BME280;46439;51.164;13.572;2023-04-01T08:35:20;98459.00;;;12.23;84.98
60611;BME280;46439;51.164;13.572;2023-04-01T08:37:53;98457.30;;;12.23;84.95
60611;BME280;46439;51.164;13.572;2023-04-01T08:40:37;98460.71;;;12.23;84.91
60611;BME280;46439;51.164;13.572;2023-04-01T08:43:13;98461.40;;;12.25;84.79
60611;BME280;46439;51.164;13.572;2023-04-01T08:46:08;98462.99;;;12.28;84.90
60611;BME280;46439;51.164;13.572;2023-04-01T08:49:03;98460.67;;;12.32;84.77
60611;BME280;46439;51.164;13.572;2023-04-01T08:52:01;98455.94;;;12.33;84.68
60611;BME280;46439;51.164;13.572;2023-04-01T08:54:46;98458.80;;;12.43;84.82
60611;BME280;46439;51.164;13.572;2023-04-01T08:57:32;98459.72;;;12.50;84.94
60611;BME280;46439;51.164;13.572;2023-04-01T09:00:15;98454.09;;;12.57;84.97
60611;BME280;46439;51.164;13.572;2023-04-01T09:03:10;98456.88;;;12.63;84.96
60611;BME280;46439;51.164;13.572;2023-04-01T09:06:20;98455.52;;;12.65;84.88
60611;BME280;46439;51.164;13.572;2023-04-01T09:11:58;98460.66;;;12.79;84.81
60611;BME280;46439;51.164;13.572;2023-04-01T09:14:52;98457.68;;;12.81;84.60
60611;BME280;46439;51.164;13.572;2023-04-01T09:17:40;98461.80;;;12.84;84.63
60611;BME280;46439;51.164;13.572;2023-04-01T09:20:52;98464.30;;;12.88;84.65
60611;BME280;46439;51.164;13.572;2023-04-01T09:26:33;98467.66;;;12.94;84.42
60611;BME280;46439;51.164;13.572;2023-04-01T09:29:23;98471.88;;;12.96;84.27
60611;BME280;46439;51.164;13.572;2023-04-01T09:32:16;98471.66;;;12.97;84.28
60611;BME280;46439;51.164;13.572;2023-04-01T09:34:58;98468.13;;;13.02;84.17
60611;BME280;46439;51.164;13.572;2023-04-01T09:37:46;98466.27;;;13.07;84.24
60611;BME280;46439;51.164;13.572;2023-04-01T09:40:25;98467.20;;;13.14;84.18
60611;BME280;46439;51.164;13.572;2023-04-01T09:43:15;98468.34;;;13.21;84.36
60611;BME280;46439;51.164;13.572;2023-04-01T09:45:53;98469.65;;;13.25;84.17
60611;BME280;46439;51.164;13.572;2023-04-01T09:51:32;98477.92;;;13.34;84.01
60611;BME280;46439;51.164;13.572;2023-04-01T09:54:18;98475.27;;;13.36;84.00
60611;BME280;46439;51.164;13.572;2023-04-01T09:57:15;98478.38;;;13.37;83.87
60611;BME280;46439;51.164;13.572;2023-04-01T10:00:08;98477.41;;;13.35;83.70
60611;BME280;46439;51.164;13.572;2023-04-01T10:21:16;98489.10;;;13.39;83.06
60611;BME280;46439;51.164;13.572;2023-04-01T10:24:12;98487.02;;;13.42;83.06
60611;BME280;46439;51.164;13.572;2023-04-01T10:27:05;98485.48;;;13.43;82.97
60611;BME280;46439;51.164;13.572;2023-04-01T10:33:30;98488.17;;;13.52;83.08
60611;BME280;46439;51.164;13.572;2023-04-01T10:39:37;98488.79;;;13.56;82.92
60611;BME280;46439;51.164;13.572;2023-04-01T10:42:20;98489.33;;;13.57;82.87
60611;BME280;46439;51.164;13.572;2023-04-01T10:51:12;98494.80;;;13.63;82.71
60611;BME280;46439;51.164;13.572;2023-04-01T10:53:50;98491.61;;;13.64;82.58
60611;BME280;46439;51.164;13.572;2023-04-01T10:56:38;98493.84;;;13.63;82.53
60611;BME280;46439;51.164;13.572;2023-04-01T10:59:33;98488.04;;;13.69;82.69
60611;BME280;46439;51.164;13.572;2023-04-01T11:17:33;98490.98;;;13.81;82.49
60611;BME280;46439;51.164;13.572;2023-04-01T11:23:23;98492.41;;;13.85;82.21
60611;BME280;46439;51.164;13.572;2023-04-01T11:26:07;98492.45;;;13.93;82.27
60611;BME280;46439;51.164;13.572;2023-04-01T11:28:53;98492.43;;;13.96;82.13
60611;BME280;46439;51.164;13.572;2023-04-01T11:31:45;98496.45;;;14.02;82.13
60611;BME280;46439;51.164;13.572;2023-04-01T11:34:27;98489.75;;;14.08;82.03
60611;BME280;46439;51.164;13.572;2023-04-01T11:37:06;98490.54;;;14.17;82.10
60611;BME280;46439;51.164;13.572;2023-04-01T11:39:46;98494.17;;;14.30;82.30
60611;BME280;46439;51.164;13.572;2023-04-01T11:42:24;98494.27;;;14.37;82.34
60611;BME280;46439;51.164;13.572;2023-04-01T11:45:07;98500.70;;;14.43;82.28
60611;BME280;46439;51.164;13.572;2023-04-01T11:48:01;98498.59;;;14.43;81.97
60611;BME280;46439;51.164;13.572;2023-04-01T11:50:42;98497.45;;;14.41;81.84
60611;BME280;46439;51.164;13.572;2023-04-01T11:53:23;98496.17;;;14.39;81.54
60611;BME280;46439;51.164;13.572;2023-04-01T11:56:06;98496.14;;;14.38;81.51
60611;BME280;46439;51.164;13.572;2023-04-01T11:58:46;98508.80;;;14.34;81.34
60611;BME280;46439;51.164;13.572;2023-04-01T12:01:38;98506.43;;;14.29;81.08
60611;BME280;46439;51.164;13.572;2023-04-01T12:04:40;98512.49;;;14.29;81.10
60611;BME280;46439;51.164;13.572;2023-04-01T12:07:21;98514.32;;;14.33;81.22
60611;BME280;46439;51.164;13.572;2023-04-01T12:10:05;98511.59;;;14.40;81.38
60611;BME280;46439;51.164;13.572;2023-04-01T12:12:48;98510.02;;;14.48;81.48
60611;BME280;46439;51.164;13.572;2023-04-01T12:15:36;98514.44;;;14.49;81.38
60611;BME280;46439;51.164;13.572;2023-04-01T12:18:17;98520.33;;;14.47;81.18
60611;BME280;46439;51.164;13.572;2023-04-01T12:20:51;98518.88;;;14.42;81.06
60611;BME280;46439;51.164;13.572;2023-04-01T12:23:39;98517.60;;;14.41;80.95
60611;BME280;46439;51.164;13.572;2023-04-01T12:26:44;98520.70;;;14.47;81.55
60611;BME280;46439;51.164;13.572;2023-04-01T12:29:41;98521.98;;;14.54;83.45
60611;BME280;46439;51.164;13.572;2023-04-01T12:32:19;98516.70;;;14.63;84.78
60611;BME280;46439;51.164;13.572;2023-04-01T12:35:01;98511.80;;;14.63;85.77
60611;BME280;46439;51.164;13.572;2023-04-01T12:37:42;98516.77;;;14.71;88.59
60611;BME280;46439;51.164;13.572;2023-04-01T12:40:28;98510.66;;;14.92;88.95
60611;BME280;46439;51.164;13.572;2023-04-01T12:43:15;98508.91;;;15.19;93.74
60611;BME280;46439;51.164;13.572;2023-04-01T12:45:57;98513.71;;;15.25;100.00
60611;BME280;46439;51.164;13.572;2023-04-01T12:48:45;98514.86;;;14.98;96.44
60611;BME280;46439;51.164;13.572;2023-04-01T12:51:48;98511.77;;;14.89;92.41
60611;BME280;46439;51.164;13.572;2023-04-01T12:57:21;98508.52;;;14.82;89.02
60611;BME280;46439;51.164;13.572;2023-04-01T13:02:55;98510.71;;;15.00;88.14
60611;BME280;46439;51.164;13.572;2023-04-01T13:05:56;98511.63;;;15.17;88.07
60611;BME280;46439;51.164;13.572;2023-04-01T13:08:40;98509.42;;;15.38;88.28
60611;BME280;46439;51.164;13.572;2023-04-01T13:11:21;98520.98;;;16.25;100.00
60611;BME280;46439;51.164;13.572;2023-04-01T13:14:23;98518.45;;;15.70;100.00
60611;BME280;46439;51.164;13.572;2023-04-01T13:16:56;98514.48;;;15.56;98.79
60611;BME280;46439;51.164;13.572;2023-04-01T13:19:31;98518.35;;;15.70;96.30
60611;BME280;46439;51.164;13.572;2023-04-01T13:22:07;98522.27;;;15.54;94.97
60611;BME280;46439;51.164;13.572;2023-04-01T13:24:47;98521.36;;;15.52;95.40
60611;BME280;46439;51.164;13.572;2023-04-01T13:27:24;98527.83;;;15.32;93.97
60611;BME280;46439;51.164;13.572;2023-04-01T13:30:04;98532.77;;;15.20;92.90
60611;BME280;46439;51.164;13.572;2023-04-01T13:32:43;98529.99;;;15.08;92.05
60611;BME280;46439;51.164;13.572;2023-04-01T13:35:22;98535.83;;;15.01;91.39
60611;BME280;46439;51.164;13.572;2023-04-01T13:38:04;98538.29;;;15.01;91.01
60611;BME280;46439;51.164;13.572;2023-04-01T13:40:42;98541.02;;;14.96;90.60
60611;BME280;46439;51.164;13.572;2023-04-01T13:43:18;98548.30;;;14.91;90.02
60611;BME280;46439;51.164;13.572;2023-04-01T13:49:11;98547.66;;;14.83;89.24
60611;BME280;46439;51.164;13.572;2023-04-01T13:52:08;98550.16;;;14.81;88.97
60611;BME280;46439;51.164;13.572;2023-04-01T14:00:56;98543.30;;;14.69;88.04
60611;BME280;46439;51.164;13.572;2023-04-01T14:03:45;98545.09;;;14.71;88.00
60611;BME280;46439;51.164;13.572;2023-04-01T14:06:30;98543.68;;;14.79;88.13
60611;BME280;46439;51.164;13.572;2023-04-01T14:09:15;98543.19;;;14.85;88.02
60611;BME280;46439;51.164;13.572;2023-04-01T14:11:56;98546.33;;;14.90;88.21
60611;BME280;46439;51.164;13.572;2023-04-01T14:14:43;98545.66;;;14.95;88.05
60611;BME280;46439;51.164;13.572;2023-04-01T14:17:39;98544.50;;;15.23;89.86
60611;BME280;46439;51.164;13.572;2023-04-01T14:20:24;98542.25;;;15.36;91.56
60611;BME280;46439;51.164;13.572;2023-04-01T14:23:07;98545.05;;;15.72;93.86
60611;BME280;46439;51.164;13.572;2023-04-01T14:26:03;98545.19;;;15.65;96.61
60611;BME280;46439;51.164;13.572;2023-04-01T14:28:40;98545.75;;;15.13;95.27
60611;BME280;46439;51.164;13.572;2023-04-01T14:31:30;98551.88;;;15.16;94.83
60611;BME280;46439;51.164;13.572;2023-04-01T14:34:09;98555.23;;;15.21;95.38
60611;BME280;46439;51.164;13.572;2023-04-01T14:43:01;98570.61;;;14.87;94.70
60611;BME280;46439;51.164;13.572;2023-04-01T14:46:06;98570.27;;;14.73;94.20
60611;BME280;46439;51.164;13.572;2023-04-01T14:48:39;98571.52;;;14.55;93.46
60611;BME280;46439;51.164;13.572;2023-04-01T14:51:20;98576.17;;;14.53;93.14
60611;BME280;46439;51.164;13.572;2023-04-01T14:54:02;98578.84;;;14.49;92.62
60611;BME280;46439;51.164;13.572;2023-04-01T14:56:38;98577.55;;;14.51;92.55
60611;BME280;46439;51.164;13.572;2023-04-01T14:59:15;98580.39;;;14.59;92.74
60611;BME280;46439;51.164;13.572;2023-04-01T15:01:50;98578.07;;;14.67;92.60
60611;BME280;46439;51.164;13.572;2023-04-01T15:04:43;98580.17;;;14.73;92.51
60611;BME280;46439;51.164;13.572;2023-04-01T15:07:42;98582.26;;;14.77;92.10
60611;BME280;46439;51.164;13.572;2023-04-01T15:10:27;98584.42;;;14.77;91.74
60611;BME280;46439;51.164;13.572;2023-04-01T15:13:09;98584.52;;;14.73;91.28